createdAt,value
2023-02-28T00:01:09.924Z,59.70
2023-02-28T00:03:37.695Z,59.70
2023-02-28T00:06:06.133Z,59.80
2023-02-28T00:08:35.496Z,59.80
2023-02-28T00:11:04.683Z,59.80
2023-02-28T00:13:33.054Z,59.70
2023-02-28T00:16:02.255Z,59.80
2023-02-28T00:18:31.571Z,59.80
2023-02-28T00:21:00.029Z,59.80
2023-02-28T00:23:28.444Z,59.80
2023-02-28T00:25:57.825Z,59.90
2023-02-28T00:28:26.047Z,59.80
2023-02-28T00:30:53.895Z,59.90
2023-02-28T00:33:22.758Z,59.90
2023-02-28T00:35:50.633Z,59.90
2023-02-28T00:38:18.803Z,60.00
2023-02-28T00:40:46.582Z,59.90
2023-02-28T00:43:15.683Z,60.00
2023-02-28T00:45:46.374Z,60.00
2023-02-28T00:48:14.207Z,59.90
2023-02-28T00:50:41.998Z,60.00
2023-02-28T00:53:10.025Z,60.00
2023-02-28T00:55:37.763Z,60.00
2023-02-28T00:58:05.988Z,60.00
2023-02-28T01:00:35.099Z,60.00
2023-02-28T01:03:02.869Z,60.00
2023-02-28T01:05:30.621Z,60.00
2023-02-28T01:07:58.409Z,60.10
2023-02-28T01:10:27.673Z,60.10
2023-02-28T01:12:55.419Z,60.10
2023-02-28T01:15:23.255Z,60.10
2023-02-28T01:17:52.493Z,60.20
2023-02-28T01:20:20.456Z,59.60
2023-02-28T01:22:48.522Z,60.20
2023-02-28T01:25:16.571Z,60.20
2023-02-28T01:27:44.359Z,60.30
2023-02-28T01:30:13.064Z,60.20
2023-02-28T01:32:40.800Z,60.20
2023-02-28T01:35:10.588Z,60.30
2023-02-28T01:37:39.530Z,60.40
2023-02-28T01:40:08.579Z,60.50
2023-02-28T01:42:36.355Z,60.40
2023-02-28T01:45:16.642Z,60.40
2023-02-28T01:47:45.552Z,60.40
2023-02-28T01:50:18.599Z,60.50
2023-02-28T01:52:48.489Z,60.40
2023-02-28T01:55:18.487Z,60.40
2023-02-28T01:57:50.249Z,60.50
2023-02-28T02:00:21.518Z,60.60
2023-02-28T02:02:52.884Z,60.60
2023-02-28T02:05:24.125Z,60.60
2023-02-28T02:07:54.305Z,60.50
2023-02-28T02:10:25.256Z,60.60
2023-02-28T02:13:14.780Z,60.70
2023-02-28T02:15:51.155Z,60.70
2023-02-28T02:18:31.331Z,61.00
2023-02-28T02:21:47.917Z,60.80
2023-02-28T02:24:51.523Z,60.70
2023-02-28T02:27:28.141Z,61.00
2023-02-28T02:30:41.930Z,60.90
2023-02-28T02:33:51.104Z,60.90
2023-02-28T02:36:25.055Z,60.90
2023-02-28T02:39:00.137Z,60.90
2023-02-28T02:41:33.550Z,60.90
2023-02-28T02:44:07.464Z,60.90
2023-02-28T02:46:39.156Z,61.00
2023-02-28T02:49:11.220Z,61.00
2023-02-28T02:51:42.402Z,61.00
2023-02-28T02:54:16.682Z,61.10
2023-02-28T02:56:47.221Z,61.10
2023-02-28T02:59:21.931Z,61.10
2023-02-28T03:01:53.176Z,61.00
2023-02-28T03:04:23.638Z,61.20
2023-02-28T03:06:55.639Z,61.10
2023-02-28T03:09:23.874Z,61.10
2023-02-28T03:11:53.827Z,61.10
2023-02-28T03:14:29.768Z,61.10
2023-02-28T03:17:24.177Z,61.20
2023-02-28T03:20:05.129Z,61.10
2023-02-28T03:23:05.840Z,61.20
2023-02-28T03:25:41.788Z,61.10
2023-02-28T03:28:16.543Z,61.20
2023-02-28T03:30:52.392Z,61.10
2023-02-28T03:33:24.066Z,61.20
2023-02-28T03:35:56.295Z,61.20
2023-02-28T03:38:31.880Z,61.40
2023-02-28T03:41:05.318Z,61.30
2023-02-28T03:43:38.794Z,61.40
2023-02-28T03:46:11.212Z,61.40
2023-02-28T03:48:45.039Z,61.40
2023-02-28T03:51:18.099Z,61.40
2023-02-28T03:53:52.303Z,61.50
2023-02-28T03:56:23.765Z,61.50
2023-02-28T03:58:57.428Z,61.50
2023-02-28T04:01:30.306Z,61.50
2023-02-28T04:03:58.285Z,61.40
2023-02-28T04:06:26.574Z,61.50
2023-02-28T04:08:55.728Z,61.50
2023-02-28T04:11:30.004Z,61.40
2023-02-28T04:13:58.007Z,61.50
2023-02-28T04:16:35.005Z,61.40
2023-02-28T04:19:05.733Z,61.50
2023-02-28T04:21:34.918Z,61.50
2023-02-28T04:24:05.122Z,61.50
2023-02-28T04:26:33.114Z,61.50
2023-02-28T04:29:01.762Z,61.50
2023-02-28T04:31:29.896Z,61.60
2023-02-28T04:33:58.406Z,61.60
2023-02-28T04:36:26.391Z,61.60
2023-02-28T04:38:54.472Z,61.60
2023-02-28T04:41:24.144Z,61.80
2023-02-28T04:43:53.503Z,61.80
2023-02-28T04:46:21.784Z,61.50
2023-02-28T04:48:49.962Z,60.80
2023-02-28T04:51:19.848Z,60.60
2023-02-28T04:53:48.316Z,60.30
2023-02-28T04:56:18.133Z,60.10
2023-02-28T04:58:47.502Z,59.90
2023-02-28T05:01:20.948Z,59.90
2023-02-28T05:03:49.469Z,59.70
2023-02-28T05:06:18.584Z,59.60
2023-02-28T05:08:46.502Z,59.50
2023-02-28T05:11:20.157Z,59.30
2023-02-28T05:13:49.902Z,59.20
2023-02-28T05:16:17.878Z,59.10
2023-02-28T05:18:45.803Z,59.00
2023-02-28T05:21:27.856Z,58.90
2023-02-28T05:23:56.966Z,58.80
2023-02-28T05:26:25.201Z,58.60
2023-02-28T05:28:54.459Z,58.40
2023-02-28T05:31:22.548Z,58.30
2023-02-28T05:33:50.565Z,58.20
2023-02-28T05:36:18.359Z,58.10
2023-02-28T05:38:48.956Z,58.10
2023-02-28T05:41:17.069Z,58.10
2023-02-28T05:43:44.941Z,58.10
2023-02-28T05:46:14.568Z,58.00
2023-02-28T05:48:43.706Z,58.00
2023-02-28T05:51:11.534Z,58.00
2023-02-28T05:53:39.370Z,57.90
2023-02-28T05:56:07.534Z,57.80
2023-02-28T05:58:35.707Z,57.70
2023-02-28T06:01:24.304Z,58.30
2023-02-28T06:03:52.166Z,57.70
2023-02-28T06:06:20.106Z,57.60
2023-02-28T06:08:48.029Z,57.60
2023-02-28T06:11:15.859Z,57.60
2023-02-28T06:13:43.706Z,57.40
2023-02-28T06:16:13.125Z,57.30
2023-02-28T06:18:42.310Z,57.30
2023-02-28T06:21:10.333Z,57.20
2023-02-28T06:23:38.319Z,57.10
2023-02-28T06:26:06.559Z,57.60
2023-02-28T06:28:34.383Z,56.90
2023-02-28T06:31:07.078Z,56.90
2023-02-28T06:33:35.157Z,56.90
2023-02-28T06:36:04.661Z,56.70
2023-02-28T06:38:32.654Z,56.90
2023-02-28T06:41:01.741Z,56.80
2023-02-28T06:43:31.264Z,56.60
2023-02-28T06:46:00.244Z,56.60
2023-02-28T06:48:28.899Z,56.50
2023-02-28T06:51:05.866Z,56.40
2023-02-28T06:53:34.127Z,56.30
2023-02-28T06:56:06.468Z,56.20
2023-02-28T06:58:34.280Z,56.10
2023-02-28T07:01:02.732Z,56.10
2023-02-28T07:03:32.205Z,54.90
2023-02-28T07:06:01.898Z,54.90
2023-02-28T07:08:32.460Z,60.00
2023-02-28T07:11:00.362Z,71.50
2023-02-28T07:13:28.385Z,72.40
2023-02-28T07:15:57.187Z,75.00
2023-02-28T07:18:25.131Z,75.60
2023-02-28T07:20:53.241Z,76.80
2023-02-28T07:23:21.803Z,76.80
2023-02-28T07:25:51.198Z,77.70
2023-02-28T07:28:19.234Z,76.90
2023-02-28T07:30:47.229Z,77.90
2023-02-28T07:33:14.993Z,78.10
2023-02-28T07:35:42.971Z,78.20
2023-02-28T07:38:11.271Z,78.50
2023-02-28T07:40:39.351Z,78.80
2023-02-28T07:43:08.525Z,78.90
2023-02-28T07:45:36.446Z,79.20
2023-02-28T07:48:04.812Z,79.00
2023-02-28T07:50:32.954Z,78.80
2023-02-28T07:53:01.293Z,79.30
2023-02-28T07:55:29.197Z,78.40
2023-02-28T07:57:58.349Z,76.40
2023-02-28T08:00:27.762Z,76.10
2023-02-28T08:02:55.592Z,75.80
2023-02-28T08:05:23.385Z,75.10
2023-02-28T08:07:51.642Z,74.00
2023-02-28T08:10:19.631Z,74.60
2023-02-28T08:12:47.463Z,74.70
2023-02-28T08:15:15.288Z,75.30
2023-02-28T08:17:44.432Z,74.90
2023-02-28T08:20:13.433Z,74.60
2023-02-28T08:22:41.336Z,74.60
2023-02-28T08:25:10.716Z,73.80
2023-02-28T08:27:38.813Z,74.20
2023-02-28T08:30:08.007Z,74.20
2023-02-28T08:32:36.003Z,74.30
2023-02-28T08:35:05.787Z,74.40
2023-02-28T08:37:33.738Z,74.70
2023-02-28T08:40:01.535Z,74.30
2023-02-28T08:42:29.370Z,74.90
2023-02-28T08:44:57.440Z,73.90
2023-02-28T08:47:25.403Z,75.60
2023-02-28T08:49:53.992Z,73.90
2023-02-28T08:52:23.084Z,73.50
2023-02-28T08:54:51.092Z,72.90
2023-02-28T08:57:18.870Z,74.10
2023-02-28T08:59:46.724Z,73.10
2023-02-28T09:02:15.246Z,73.40
2023-02-28T09:04:46.217Z,73.60
2023-02-28T09:07:14.819Z,71.30
2023-02-28T09:09:54.683Z,72.40
2023-02-28T09:12:23.075Z,70.90
2023-02-28T09:14:50.897Z,72.10
2023-02-28T09:17:19.183Z,71.60
2023-02-28T09:19:47.442Z,71.00
2023-02-28T09:22:15.229Z,72.10
2023-02-28T09:24:45.615Z,70.60
2023-02-28T09:27:13.408Z,70.40
2023-02-28T09:29:41.220Z,71.50
2023-02-28T09:32:09.063Z,71.20
2023-02-28T09:34:37.958Z,71.20
2023-02-28T09:37:05.999Z,71.50
2023-02-28T09:39:33.930Z,68.30
2023-02-28T09:42:05.076Z,72.40
2023-02-28T09:44:38.359Z,70.80
2023-02-28T09:47:14.945Z,71.30
2023-02-28T09:49:47.067Z,70.20
2023-02-28T09:52:20.212Z,72.80
2023-02-28T09:54:48.271Z,69.20
2023-02-28T09:57:23.736Z,71.50
2023-02-28T10:00:03.184Z,73.60
2023-02-28T10:02:53.725Z,70.20
2023-02-28T10:05:24.996Z,67.90
2023-02-28T10:08:02.720Z,70.50
2023-02-28T10:10:36.796Z,72.60
2023-02-28T10:13:14.385Z,72.50
2023-02-28T10:15:43.193Z,74.70
2023-02-28T10:18:15.712Z,72.50
2023-02-28T10:20:44.825Z,68.70
2023-02-28T10:23:18.932Z,73.50
2023-02-28T10:25:51.934Z,72.00
2023-02-28T10:28:21.064Z,70.90
2023-02-28T10:30:50.637Z,71.00
2023-02-28T10:33:23.383Z,72.70
2023-02-28T10:35:51.447Z,77.10
2023-02-28T10:38:22.732Z,74.30
2023-02-28T10:40:50.994Z,72.60
2023-02-28T10:43:26.577Z,72.40
2023-02-28T10:46:01.162Z,72.00
2023-02-28T10:48:33.854Z,74.20
2023-02-28T10:51:03.311Z,57.60
2023-02-28T10:53:57.232Z,53.30
2023-02-28T10:56:26.941Z,51.60
2023-02-28T10:58:58.672Z,53.00
2023-02-28T11:01:36.653Z,55.00
2023-02-28T11:04:05.076Z,53.30
2023-02-28T11:06:35.356Z,57.10
2023-02-28T11:09:08.103Z,58.20
2023-02-28T11:11:45.593Z,57.10
2023-02-28T11:14:23.257Z,56.20
2023-02-28T11:16:52.299Z,61.50
2023-02-28T11:19:24.527Z,62.20
2023-02-28T11:21:56.689Z,60.90
2023-02-28T11:24:29.268Z,67.10
2023-02-28T11:26:57.630Z,67.20
2023-02-28T11:29:29.482Z,60.70
2023-02-28T11:32:08.347Z,59.30
2023-02-28T11:34:38.416Z,58.70
2023-02-28T11:37:11.503Z,55.90
2023-02-28T11:39:39.335Z,54.10
2023-02-28T11:42:20.313Z,53.60
2023-02-28T11:45:04.829Z,54.40
2023-02-28T11:47:39.985Z,57.90
2023-02-28T11:50:33.243Z,53.30
2023-02-28T11:53:03.507Z,56.30
2023-02-28T11:55:37.041Z,52.20
2023-02-28T11:58:21.536Z,53.70
2023-02-28T12:01:30.143Z,53.80
2023-02-28T12:04:15.220Z,55.20
2023-02-28T12:06:51.914Z,52.00
2023-02-28T12:09:43.032Z,53.10
2023-02-28T12:12:24.500Z,53.90
2023-02-28T12:15:16.767Z,51.70
2023-02-28T12:17:56.050Z,53.90
2023-02-28T12:20:32.656Z,54.10
2023-02-28T12:23:21.516Z,54.10
2023-02-28T12:25:56.672Z,54.00
2023-02-28T12:28:29.890Z,56.80
2023-02-28T12:31:03.081Z,56.20
2023-02-28T12:33:36.564Z,56.70
2023-02-28T12:36:11.197Z,55.00
2023-02-28T12:38:44.139Z,58.30
2023-02-28T12:41:15.466Z,57.80
2023-02-28T12:43:48.057Z,56.40
2023-02-28T12:46:21.901Z,59.70
2023-02-28T12:48:56.451Z,57.20
2023-02-28T12:51:25.883Z,56.70
2023-02-28T12:54:01.954Z,57.10
2023-02-28T12:56:40.750Z,56.90
2023-02-28T12:59:19.369Z,57.20
2023-02-28T13:02:15.117Z,57.70
2023-02-28T13:05:17.726Z,56.60
2023-02-28T13:08:22.384Z,58.20
2023-02-28T13:10:55.180Z,56.70
2023-02-28T13:13:25.399Z,59.40
2023-02-28T13:16:01.902Z,59.50
2023-02-28T13:18:32.800Z,57.60
2023-02-28T13:21:03.001Z,59.50
2023-02-28T13:23:41.565Z,57.10
2023-02-28T13:26:09.666Z,57.90
2023-02-28T13:29:24.192Z,58.20
2023-02-28T13:32:43.566Z,56.90
2023-02-28T13:35:37.201Z,59.40
2023-02-28T13:38:36.730Z,57.60
2023-02-28T13:41:42.856Z,58.60
2023-02-28T13:44:12.471Z,57.00
2023-02-28T13:47:10.080Z,58.20
2023-02-28T13:49:38.136Z,58.70
2023-02-28T13:52:17.754Z,60.30
2023-02-28T13:55:09.590Z,59.80
2023-02-28T13:57:51.260Z,62.00
2023-02-28T14:00:30.276Z,57.20
2023-02-28T14:03:14.616Z,52.60
2023-02-28T14:05:43.134Z,56.10
2023-02-28T14:08:17.941Z,56.20
2023-02-28T14:10:50.301Z,56.40
2023-02-28T14:13:44.980Z,57.40
2023-02-28T14:16:16.163Z,53.40
2023-02-28T14:18:51.991Z,59.10
2023-02-28T14:21:26.342Z,59.80
2023-02-28T14:24:25.305Z,57.10
2023-02-28T14:27:10.235Z,63.70
2023-02-28T14:30:07.991Z,69.80
2023-02-28T14:32:39.622Z,70.30
2023-02-28T14:35:21.278Z,74.90
2023-02-28T14:37:50.718Z,75.30
2023-02-28T14:40:24.186Z,71.40
2023-02-28T14:43:00.496Z,73.50
2023-02-28T14:45:31.882Z,73.40
2023-02-28T14:48:01.020Z,76.00
2023-02-28T14:50:32.317Z,73.00
2023-02-28T14:53:00.777Z,72.50
2023-02-28T14:55:31.573Z,72.70
2023-02-28T14:58:05.076Z,74.40
2023-02-28T15:00:35.106Z,77.60
2023-02-28T15:03:20.143Z,76.20
2023-02-28T15:05:54.513Z,79.90
2023-02-28T15:08:22.333Z,75.70
2023-02-28T15:10:55.822Z,78.10
2023-02-28T15:13:28.480Z,77.80
2023-02-28T15:16:03.878Z,79.00
2023-02-28T15:18:41.323Z,79.70
2023-02-28T15:21:13.110Z,79.60
2023-02-28T15:23:42.849Z,78.70
2023-02-28T15:26:14.728Z,81.10
2023-02-28T15:28:44.187Z,79.00
2023-02-28T15:31:23.697Z,77.20
2023-02-28T15:33:56.549Z,79.70
2023-02-28T15:36:28.722Z,80.00
2023-02-28T15:39:01.582Z,79.00
2023-02-28T15:41:40.272Z,78.40
2023-02-28T15:44:27.652Z,79.60
2023-02-28T15:46:59.423Z,79.20
2023-02-28T15:49:27.641Z,77.60
2023-02-28T15:51:59.594Z,79.30
2023-02-28T15:54:31.493Z,79.70
2023-02-28T15:57:03.668Z,80.30
2023-02-28T15:59:33.846Z,79.80
2023-02-28T16:02:14.944Z,76.70
2023-02-28T16:04:58.601Z,78.40
2023-02-28T16:07:26.802Z,77.60
2023-02-28T16:09:54.714Z,79.20
2023-02-28T16:12:26.655Z,77.80
2023-02-28T16:14:57.527Z,79.10
2023-02-28T16:17:28.170Z,78.50
2023-02-28T16:19:56.669Z,78.10
2023-02-28T16:22:24.837Z,78.20
2023-02-28T16:24:52.815Z,81.00
2023-02-28T16:27:25.378Z,80.60
2023-02-28T16:29:53.396Z,76.40
2023-02-28T16:32:22.622Z,77.30
2023-02-28T16:34:50.617Z,79.70
2023-02-28T16:37:19.840Z,80.10
2023-02-28T16:39:48.678Z,78.50
2023-02-28T16:42:23.507Z,79.90
2023-02-28T16:44:51.551Z,78.60
2023-02-28T16:47:19.374Z,78.80
2023-02-28T16:49:48.598Z,83.20
2023-02-28T16:52:17.067Z,81.40
2023-02-28T16:54:44.865Z,79.50
2023-02-28T16:57:22.135Z,81.90
2023-02-28T16:59:51.619Z,82.40
2023-02-28T17:02:21.289Z,82.90
2023-02-28T17:04:50.588Z,82.70
2023-02-28T17:07:18.661Z,82.10
2023-02-28T17:09:47.103Z,81.30
2023-02-28T17:12:15.362Z,80.70
2023-02-28T17:14:43.178Z,82.00
2023-02-28T17:17:17.545Z,80.10
2023-02-28T17:19:45.386Z,81.40
2023-02-28T17:22:14.652Z,81.60
2023-02-28T17:24:42.492Z,81.40
2023-02-28T17:27:13.400Z,80.90
2023-02-28T17:29:41.209Z,80.40
2023-02-28T17:32:17.976Z,80.30
2023-02-28T17:34:46.775Z,80.80
2023-02-28T17:37:16.187Z,80.00
2023-02-28T17:39:44.016Z,79.40
2023-02-28T17:42:11.859Z,79.20
2023-02-28T17:44:39.667Z,79.20
2023-02-28T17:47:07.680Z,78.70
2023-02-28T17:49:35.502Z,78.70
2023-02-28T17:52:03.338Z,78.50
2023-02-28T17:54:32.554Z,75.30
2023-02-28T17:57:00.323Z,75.50
2023-02-28T17:59:34.037Z,76.00
2023-02-28T18:02:02.109Z,78.20
2023-02-28T18:04:30.211Z,78.50
2023-02-28T18:07:00.893Z,78.30
2023-02-28T18:09:29.219Z,78.20
2023-02-28T18:11:58.560Z,78.30
2023-02-28T18:14:27.540Z,78.00
2023-02-28T18:16:57.405Z,78.10
2023-02-28T18:19:25.660Z,78.30
2023-02-28T18:21:54.919Z,78.20
2023-02-28T18:24:24.319Z,76.10
2023-02-28T18:26:52.364Z,75.10
2023-02-28T18:29:23.570Z,75.70
2023-02-28T18:31:52.261Z,75.10
2023-02-28T18:34:20.520Z,75.60
2023-02-28T18:36:48.524Z,75.40
2023-02-28T18:39:16.516Z,76.00
2023-02-28T18:41:44.666Z,76.70
2023-02-28T18:44:20.008Z,76.70
2023-02-28T18:46:50.372Z,76.90
2023-02-28T18:49:18.529Z,76.80
2023-02-28T18:51:46.669Z,77.20
2023-02-28T18:54:15.580Z,77.30
2023-02-28T18:56:44.087Z,78.10
2023-02-28T18:59:12.046Z,79.70
2023-02-28T19:01:40.851Z,79.70
2023-02-28T19:04:13.268Z,79.80
2023-02-28T19:06:41.994Z,79.70
2023-02-28T19:09:10.400Z,79.80
2023-02-28T19:11:38.244Z,79.60
2023-02-28T19:14:06.328Z,80.20
2023-02-28T19:16:34.339Z,80.10
2023-02-28T19:19:02.317Z,80.10
2023-02-28T19:21:31.517Z,80.30
2023-02-28T19:23:59.341Z,80.00
2023-02-28T19:26:28.143Z,80.20
2023-02-28T19:28:56.350Z,80.30
2023-02-28T19:31:26.858Z,80.40
2023-02-28T19:33:56.751Z,80.20
2023-02-28T19:36:25.898Z,80.30
2023-02-28T19:38:55.086Z,80.20
2023-02-28T19:41:25.287Z,80.20
2023-02-28T19:43:54.312Z,80.40
2023-02-28T19:46:22.100Z,80.40
2023-02-28T19:48:49.918Z,80.50
2023-02-28T19:53:50.567Z,80.40
2023-02-28T19:56:19.785Z,80.50
2023-02-28T19:58:47.641Z,80.60
2023-02-28T20:01:17.669Z,80.80
2023-02-28T20:03:49.296Z,80.20
2023-02-28T20:06:17.510Z,80.50
2023-02-28T20:08:45.463Z,80.60
2023-02-28T20:11:15.019Z,80.70
2023-02-28T20:13:44.701Z,80.30
2023-02-28T20:16:14.811Z,80.60
2023-02-28T20:18:44.099Z,80.60
2023-02-28T20:21:13.246Z,80.60
2023-02-28T20:23:43.069Z,80.50
2023-02-28T20:26:12.682Z,80.60
2023-02-28T20:28:40.818Z,80.70
2023-02-28T20:31:14.334Z,80.90
2023-02-28T20:33:43.469Z,80.60
2023-02-28T20:36:13.397Z,80.40
2023-02-28T20:38:41.672Z,80.50
2023-02-28T20:41:09.799Z,80.60
2023-02-28T20:43:37.657Z,80.50
2023-02-28T20:46:05.746Z,80.40
2023-02-28T20:48:36.345Z,80.70
2023-02-28T20:51:05.073Z,80.50
2023-02-28T20:53:34.583Z,80.80
2023-02-28T20:56:04.327Z,80.80
2023-02-28T20:58:33.964Z,80.70
2023-02-28T21:01:03.115Z,80.30
2023-02-28T21:03:31.153Z,80.60
2023-02-28T21:06:04.507Z,80.50
2023-02-28T21:08:32.348Z,80.00
2023-02-28T21:11:00.142Z,77.00
2023-02-28T21:13:28.048Z,76.40
2023-02-28T21:15:55.978Z,76.00
2023-02-28T21:18:23.867Z,75.90
2023-02-28T21:20:51.658Z,75.40
2023-02-28T21:23:21.017Z,75.10
2023-02-28T21:25:49.717Z,74.80
2023-02-28T21:28:17.479Z,74.80
2023-02-28T21:30:45.324Z,74.70
2023-02-28T21:33:13.164Z,74.80
2023-02-28T21:35:41.022Z,74.60
2023-02-28T21:38:08.796Z,74.40
2023-02-28T21:40:37.911Z,74.60
2023-02-28T21:43:05.670Z,74.70
2023-02-28T21:45:35.178Z,74.80
2023-02-28T21:48:02.955Z,74.60
2023-02-28T21:50:30.727Z,74.80
2023-02-28T21:52:58.499Z,74.80
2023-02-28T21:55:26.286Z,74.80
2023-02-28T21:57:55.371Z,75.50
2023-02-28T22:00:23.461Z,74.70
2023-02-28T22:02:51.256Z,74.90
2023-02-28T22:05:19.041Z,74.90
2023-02-28T22:07:46.807Z,75.00
2023-02-28T22:10:14.582Z,75.10
2023-02-28T22:12:42.357Z,75.00
2023-02-28T22:15:12.491Z,75.00
2023-02-28T22:17:40.367Z,74.80
2023-02-28T22:20:08.843Z,74.90
2023-02-28T22:22:36.617Z,74.90
2023-02-28T22:25:04.740Z,75.00
2023-02-28T22:27:32.536Z,75.00
2023-02-28T22:30:00.362Z,75.00
2023-02-28T22:32:29.512Z,75.00
2023-02-28T22:34:57.527Z,74.90
2023-02-28T22:37:25.339Z,75.10
2023-02-28T22:39:53.114Z,75.10
2023-02-28T22:42:21.359Z,75.10
2023-02-28T22:44:51.354Z,75.10
2023-02-28T22:47:19.809Z,75.00
2023-02-28T22:49:48.893Z,75.30
2023-02-28T22:52:16.677Z,75.10
2023-02-28T22:54:44.441Z,75.30
2023-02-28T22:57:12.505Z,75.30
2023-02-28T22:59:40.283Z,75.40
2023-02-28T23:02:08.076Z,75.50
2023-02-28T23:04:35.989Z,75.40
2023-02-28T23:07:05.192Z,75.30
2023-02-28T23:09:32.968Z,75.40
2023-02-28T23:12:00.769Z,75.50
2023-02-28T23:14:28.552Z,75.60
2023-02-28T23:16:56.551Z,75.60
2023-02-28T23:19:27.658Z,75.60
2023-02-28T23:21:55.600Z,75.60
2023-02-28T23:24:26.975Z,75.70
2023-02-28T23:26:56.991Z,75.60
2023-02-28T23:29:27.475Z,75.50
2023-02-28T23:31:56.173Z,75.60
2023-02-28T23:34:26.318Z,75.70
2023-02-28T23:36:55.345Z,75.80
2023-02-28T23:39:26.411Z,75.60
2023-02-28T23:41:54.523Z,75.60
2023-02-28T23:44:22.506Z,75.80
2023-02-28T23:46:52.560Z,75.90
2023-02-28T23:49:21.191Z,76.00
2023-02-28T23:51:49.843Z,76.30
2023-02-28T23:54:18.672Z,76.10
2023-02-28T23:56:47.912Z,76.20
2023-02-28T23:59:15.795Z,76.40
